sensor_id;sensor_type;location;lat;lon;timestamp;P1;durP1;ratioP1;P2;durP2;ratioP2
75793;SDS011;64418;47.536;19.074;2022-11-20T00:00:24;22.33;;;9.38;;
75793;SDS011;64418;47.536;19.074;2022-11-20T00:02:52;20.92;;;8.98;;
75793;SDS011;64418;47.536;19.074;2022-11-20T00:05:18;18.67;;;9.13;;
75793;SDS011;64418;47.536;19.074;2022-11-20T00:07:44;21.95;;;9.52;;
75793;SDS011;64418;47.536;19.074;2022-11-20T00:10:10;19.87;;;8.20;;
75793;SDS011;64418;47.536;19.074;2022-11-20T00:12:37;22.15;;;8.90;;
75793;SDS011;64418;47.536;19.074;2022-11-20T00:15:03;21.77;;;9.90;;
75793;SDS011;64418;47.536;19.074;2022-11-20T00:17:30;20.92;;;9.45;;
75793;SDS011;64418;47.536;19.074;2022-11-20T00:19:55;18.42;;;8.30;;
75793;SDS011;64418;47.536;19.074;2022-11-20T00:22:21;21.77;;;9.60;;
75793;SDS011;64418;47.536;19.074;2022-11-20T00:24:47;23.30;;;9.32;;
75793;SDS011;64418;47.536;19.074;2022-11-20T00:27:12;19.80;;;9.40;;
75793;SDS011;64418;47.536;19.074;2022-11-20T00:29:39;19.67;;;8.33;;
75793;SDS011;64418;47.536;19.074;2022-11-20T00:32:05;17.83;;;8.53;;
75793;SDS011;64418;47.536;19.074;2022-11-20T00:34:31;21.17;;;9.43;;
75793;SDS011;64418;47.536;19.074;2022-11-20T00:36:56;21.03;;;9.13;;
75793;SDS011;64418;47.536;19.074;2022-11-20T00:39:22;23.08;;;9.07;;
75793;SDS011;64418;47.536;19.074;2022-11-20T00:41:47;21.43;;;9.03;;
75793;SDS011;64418;47.536;19.074;2022-11-20T00:44:13;17.98;;;7.95;;
75793;SDS011;64418;47.536;19.074;2022-11-20T00:46:40;18.62;;;8.20;;
75793;SDS011;64418;47.536;19.074;2022-11-20T00:49:06;16.37;;;7.80;;
75793;SDS011;64418;47.536;19.074;2022-11-20T00:51:32;18.70;;;8.57;;
75793;SDS011;64418;47.536;19.074;2022-11-20T00:53:58;21.73;;;9.60;;
75793;SDS011;64418;47.536;19.074;2022-11-20T00:56:24;21.08;;;8.70;;
75793;SDS011;64418;47.536;19.074;2022-11-20T00:58:50;23.48;;;9.70;;
75793;SDS011;64418;47.536;19.074;2022-11-20T01:01:16;22.30;;;9.13;;
75793;SDS011;64418;47.536;19.074;2022-11-20T01:03:46;23.43;;;9.87;;
75793;SDS011;64418;47.536;19.074;2022-11-20T01:06:13;23.60;;;9.15;;
75793;SDS011;64418;47.536;19.074;2022-11-20T01:08:41;25.77;;;11.27;;
75793;SDS011;64418;47.536;19.074;2022-11-20T01:11:08;32.00;;;11.15;;
75793;SDS011;64418;47.536;19.074;2022-11-20T01:13:35;26.02;;;10.32;;
75793;SDS011;64418;47.536;19.074;2022-11-20T01:16:02;21.40;;;9.63;;
75793;SDS011;64418;47.536;19.074;2022-11-20T01:18:28;24.48;;;10.07;;
75793;SDS011;64418;47.536;19.074;2022-11-20T01:20:56;25.05;;;10.00;;
75793;SDS011;64418;47.536;19.074;2022-11-20T01:23:25;24.33;;;9.70;;
75793;SDS011;64418;47.536;19.074;2022-11-20T01:25:51;28.45;;;10.32;;
75793;SDS011;64418;47.536;19.074;2022-11-20T01:28:17;27.27;;;10.48;;
75793;SDS011;64418;47.536;19.074;2022-11-20T01:30:43;27.62;;;10.35;;
75793;SDS011;64418;47.536;19.074;2022-11-20T01:33:09;28.70;;;10.50;;
75793;SDS011;64418;47.536;19.074;2022-11-20T01:35:34;28.87;;;10.75;;
75793;SDS011;64418;47.536;19.074;2022-11-20T01:38:01;26.07;;;10.10;;
75793;SDS011;64418;47.536;19.074;2022-11-20T01:40:27;28.62;;;10.65;;
75793;SDS011;64418;47.536;19.074;2022-11-20T01:42:55;27.03;;;10.53;;
75793;SDS011;64418;47.536;19.074;2022-11-20T01:45:44;24.87;;;10.13;;
75793;SDS011;64418;47.536;19.074;2022-11-20T01:48:21;25.08;;;10.30;;
75793;SDS011;64418;47.536;19.074;2022-11-20T01:50:51;26.05;;;11.52;;
75793;SDS011;64418;47.536;19.074;2022-11-20T01:53:21;25.95;;;10.95;;
75793;SDS011;64418;47.536;19.074;2022-11-20T01:55:51;29.90;;;11.10;;
75793;SDS011;64418;47.536;19.074;2022-11-20T01:58:20;30.02;;;12.07;;
75793;SDS011;64418;47.536;19.074;2022-11-20T02:00:48;30.37;;;10.93;;
75793;SDS011;64418;47.536;19.074;2022-11-20T02:03:15;32.03;;;11.53;;
75793;SDS011;64418;47.536;19.074;2022-11-20T02:05:45;29.25;;;10.85;;
75793;SDS011;64418;47.536;19.074;2022-11-20T02:08:16;26.80;;;11.32;;
75793;SDS011;64418;47.536;19.074;2022-11-20T02:10:44;28.73;;;11.18;;
75793;SDS011;64418;47.536;19.074;2022-11-20T02:13:10;26.48;;;10.85;;
75793;SDS011;64418;47.536;19.074;2022-11-20T02:15:36;26.67;;;11.20;;
75793;SDS011;64418;47.536;19.074;2022-11-20T02:18:02;30.62;;;12.70;;
75793;SDS011;64418;47.536;19.074;2022-11-20T02:20:28;29.23;;;11.35;;
75793;SDS011;64418;47.536;19.074;2022-11-20T02:22:54;28.62;;;10.95;;
75793;SDS011;64418;47.536;19.074;2022-11-20T02:25:28;35.53;;;12.57;;
75793;SDS011;64418;47.536;19.074;2022-11-20T02:27:56;29.50;;;11.20;;
75793;SDS011;64418;47.536;19.074;2022-11-20T02:30:21;31.23;;;11.65;;
75793;SDS011;64418;47.536;19.074;2022-11-20T02:32:47;27.53;;;12.00;;
75793;SDS011;64418;47.536;19.074;2022-11-20T02:38:08;29.63;;;11.82;;
75793;SDS011;64418;47.536;19.074;2022-11-20T02:40:35;32.85;;;12.55;;
75793;SDS011;64418;47.536;19.074;2022-11-20T02:43:01;28.12;;;10.88;;
75793;SDS011;64418;47.536;19.074;2022-11-20T02:45:27;26.60;;;11.25;;
75793;SDS011;64418;47.536;19.074;2022-11-20T02:47:52;29.97;;;12.17;;
75793;SDS011;64418;47.536;19.074;2022-11-20T02:50:18;31.45;;;11.40;;
75793;SDS011;64418;47.536;19.074;2022-11-20T02:52:45;26.93;;;11.33;;
75793;SDS011;64418;47.536;19.074;2022-11-20T02:55:10;29.17;;;12.27;;
75793;SDS011;64418;47.536;19.074;2022-11-20T02:57:38;26.20;;;10.32;;
75793;SDS011;64418;47.536;19.074;2022-11-20T03:00:04;27.27;;;11.05;;
75793;SDS011;64418;47.536;19.074;2022-11-20T03:02:31;29.57;;;11.87;;
75793;SDS011;64418;47.536;19.074;2022-11-20T03:04:57;25.20;;;11.18;;
75793;SDS011;64418;47.536;19.074;2022-11-20T03:07:23;29.55;;;11.35;;
75793;SDS011;64418;47.536;19.074;2022-11-20T03:09:48;29.33;;;10.93;;
75793;SDS011;64418;47.536;19.074;2022-11-20T03:12:14;26.00;;;11.27;;
75793;SDS011;64418;47.536;19.074;2022-11-20T03:14:41;27.75;;;11.18;;
75793;SDS011;64418;47.536;19.074;2022-11-20T03:17:07;27.80;;;10.77;;
75793;SDS011;64418;47.536;19.074;2022-11-20T03:19:33;24.98;;;10.73;;
75793;SDS011;64418;47.536;19.074;2022-11-20T03:21:58;25.93;;;11.03;;
75793;SDS011;64418;47.536;19.074;2022-11-20T03:24:24;30.05;;;11.85;;
75793;SDS011;64418;47.536;19.074;2022-11-20T03:26:50;24.92;;;10.25;;
75793;SDS011;64418;47.536;19.074;2022-11-20T03:29:16;22.97;;;10.53;;
75793;SDS011;64418;47.536;19.074;2022-11-20T03:31:43;27.85;;;12.25;;
75793;SDS011;64418;47.536;19.074;2022-11-20T03:34:09;23.80;;;10.32;;
75793;SDS011;64418;47.536;19.074;2022-11-20T03:36:37;23.77;;;10.07;;
75793;SDS011;64418;47.536;19.074;2022-11-20T03:39:03;28.00;;;11.38;;
75793;SDS011;64418;47.536;19.074;2022-11-20T03:41:29;22.98;;;10.48;;
75793;SDS011;64418;47.536;19.074;2022-11-20T03:43:57;27.80;;;10.48;;
75793;SDS011;64418;47.536;19.074;2022-11-20T03:46:25;25.67;;;10.57;;
75793;SDS011;64418;47.536;19.074;2022-11-20T03:48:53;23.80;;;10.68;;
75793;SDS011;64418;47.536;19.074;2022-11-20T03:51:20;25.75;;;10.73;;
75793;SDS011;64418;47.536;19.074;2022-11-20T03:53:47;25.52;;;10.30;;
75793;SDS011;64418;47.536;19.074;2022-11-20T03:56:14;23.17;;;10.43;;
75793;SDS011;64418;47.536;19.074;2022-11-20T03:58:42;27.67;;;10.90;;
75793;SDS011;64418;47.536;19.074;2022-11-20T04:01:09;27.65;;;11.00;;
75793;SDS011;64418;47.536;19.074;2022-11-20T04:03:36;26.50;;;11.07;;
75793;SDS011;64418;47.536;19.074;2022-11-20T04:06:07;26.10;;;11.52;;
75793;SDS011;64418;47.536;19.074;2022-11-20T04:08:34;26.27;;;11.05;;
75793;SDS011;64418;47.536;19.074;2022-11-20T04:11:10;23.83;;;9.80;;
75793;SDS011;64418;47.536;19.074;2022-11-20T04:13:37;26.67;;;11.65;;
75793;SDS011;64418;47.536;19.074;2022-11-20T04:16:04;27.90;;;11.27;;
75793;SDS011;64418;47.536;19.074;2022-11-20T04:18:30;24.30;;;11.10;;
75793;SDS011;64418;47.536;19.074;2022-11-20T04:20:56;28.90;;;10.83;;
75793;SDS011;64418;47.536;19.074;2022-11-20T04:23:23;28.62;;;11.95;;
75793;SDS011;64418;47.536;19.074;2022-11-20T04:25:49;28.27;;;10.68;;
75793;SDS011;64418;47.536;19.074;2022-11-20T04:28:15;29.13;;;11.37;;
75793;SDS011;64418;47.536;19.074;2022-11-20T04:30:41;24.60;;;11.57;;
75793;SDS011;64418;47.536;19.074;2022-11-20T04:33:06;26.90;;;11.07;;
75793;SDS011;64418;47.536;19.074;2022-11-20T04:35:33;28.93;;;11.53;;
75793;SDS011;64418;47.536;19.074;2022-11-20T04:37:59;24.92;;;10.95;;
75793;SDS011;64418;47.536;19.074;2022-11-20T04:40:26;23.80;;;10.67;;
75793;SDS011;64418;47.536;19.074;2022-11-20T04:42:53;24.83;;;10.43;;
75793;SDS011;64418;47.536;19.074;2022-11-20T04:45:18;26.20;;;10.57;;
75793;SDS011;64418;47.536;19.074;2022-11-20T04:47:44;27.33;;;10.03;;
75793;SDS011;64418;47.536;19.074;2022-11-20T04:50:10;23.97;;;10.83;;
75793;SDS011;64418;47.536;19.074;2022-11-20T04:52:39;25.83;;;10.23;;
75793;SDS011;64418;47.536;19.074;2022-11-20T04:55:05;24.15;;;10.85;;
75793;SDS011;64418;47.536;19.074;2022-11-20T04:57:33;27.87;;;11.52;;
75793;SDS011;64418;47.536;19.074;2022-11-20T04:59:59;23.85;;;10.00;;
75793;SDS011;64418;47.536;19.074;2022-11-20T05:02:24;26.73;;;11.70;;
75793;SDS011;64418;47.536;19.074;2022-11-20T05:04:50;25.85;;;11.43;;
75793;SDS011;64418;47.536;19.074;2022-11-20T05:07:16;25.60;;;10.95;;
75793;SDS011;64418;47.536;19.074;2022-11-20T05:09:42;24.07;;;11.30;;
75793;SDS011;64418;47.536;19.074;2022-11-20T05:12:08;25.87;;;10.60;;
75793;SDS011;64418;47.536;19.074;2022-11-20T05:14:35;26.33;;;10.83;;
75793;SDS011;64418;47.536;19.074;2022-11-20T05:17:01;26.62;;;11.10;;
75793;SDS011;64418;47.536;19.074;2022-11-20T05:19:26;23.30;;;9.90;;
75793;SDS011;64418;47.536;19.074;2022-11-20T05:21:52;26.20;;;11.70;;
75793;SDS011;64418;47.536;19.074;2022-11-20T05:24:18;26.70;;;11.27;;
75793;SDS011;64418;47.536;19.074;2022-11-20T05:26:44;26.47;;;11.40;;
75793;SDS011;64418;47.536;19.074;2022-11-20T05:29:10;25.20;;;10.32;;
75793;SDS011;64418;47.536;19.074;2022-11-20T05:31:38;26.10;;;11.10;;
75793;SDS011;64418;47.536;19.074;2022-11-20T05:34:04;27.60;;;12.00;;
75793;SDS011;64418;47.536;19.074;2022-11-20T05:36:30;25.40;;;10.45;;
75793;SDS011;64418;47.536;19.074;2022-11-20T05:38:56;28.40;;;11.82;;
75793;SDS011;64418;47.536;19.074;2022-11-20T05:41:21;27.70;;;10.57;;
75793;SDS011;64418;47.536;19.074;2022-11-20T05:43:48;28.75;;;11.63;;
75793;SDS011;64418;47.536;19.074;2022-11-20T05:46:15;24.83;;;10.83;;
75793;SDS011;64418;47.536;19.074;2022-11-20T05:48:44;24.95;;;9.77;;
75793;SDS011;64418;47.536;19.074;2022-11-20T05:51:11;25.23;;;9.93;;
75793;SDS011;64418;47.536;19.074;2022-11-20T05:53:37;22.98;;;10.05;;
75793;SDS011;64418;47.536;19.074;2022-11-20T05:56:04;26.23;;;11.67;;
75793;SDS011;64418;47.536;19.074;2022-11-20T05:58:31;27.02;;;10.90;;
75793;SDS011;64418;47.536;19.074;2022-11-20T06:01:02;26.10;;;10.35;;
75793;SDS011;64418;47.536;19.074;2022-11-20T06:03:29;22.02;;;10.00;;
75793;SDS011;64418;47.536;19.074;2022-11-20T06:05:58;25.37;;;10.33;;
75793;SDS011;64418;47.536;19.074;2022-11-20T06:08:23;25.27;;;10.35;;
75793;SDS011;64418;47.536;19.074;2022-11-20T06:10:49;23.90;;;9.57;;
75793;SDS011;64418;47.536;19.074;2022-11-20T06:13:14;22.58;;;9.63;;
75793;SDS011;64418;47.536;19.074;2022-11-20T06:15:40;23.40;;;9.37;;
75793;SDS011;64418;47.536;19.074;2022-11-20T06:18:06;25.48;;;9.52;;
75793;SDS011;64418;47.536;19.074;2022-11-20T06:20:32;23.48;;;9.45;;
75793;SDS011;64418;47.536;19.074;2022-11-20T06:22:59;22.37;;;10.13;;
75793;SDS011;64418;47.536;19.074;2022-11-20T06:25:24;22.42;;;9.70;;
75793;SDS011;64418;47.536;19.074;2022-11-20T06:27:50;21.10;;;9.48;;
75793;SDS011;64418;47.536;19.074;2022-11-20T06:30:16;24.23;;;9.98;;
75793;SDS011;64418;47.536;19.074;2022-11-20T06:32:42;22.30;;;9.83;;
75793;SDS011;64418;47.536;19.074;2022-11-20T06:35:08;23.30;;;10.27;;
75793;SDS011;64418;47.536;19.074;2022-11-20T06:37:34;23.65;;;9.70;;
75793;SDS011;64418;47.536;19.074;2022-11-20T06:40:01;26.10;;;10.10;;
75793;SDS011;64418;47.536;19.074;2022-11-20T06:42:28;22.60;;;9.15;;
75793;SDS011;64418;47.536;19.074;2022-11-20T06:44:53;22.17;;;9.87;;
75793;SDS011;64418;47.536;19.074;2022-11-20T06:47:19;22.20;;;10.05;;
75793;SDS011;64418;47.536;19.074;2022-11-20T06:49:45;26.10;;;10.13;;
75793;SDS011;64418;47.536;19.074;2022-11-20T06:52:11;22.60;;;10.00;;
75793;SDS011;64418;47.536;19.074;2022-11-20T06:54:37;20.50;;;9.18;;
75793;SDS011;64418;47.536;19.074;2022-11-20T06:57:05;22.60;;;10.30;;
75793;SDS011;64418;47.536;19.074;2022-11-20T06:59:30;24.05;;;10.45;;
75793;SDS011;64418;47.536;19.074;2022-11-20T07:01:56;24.48;;;9.65;;
75793;SDS011;64418;47.536;19.074;2022-11-20T07:04:22;23.47;;;9.40;;
75793;SDS011;64418;47.536;19.074;2022-11-20T07:06:48;24.37;;;9.75;;
75793;SDS011;64418;47.536;19.074;2022-11-20T07:09:13;22.90;;;9.67;;
75793;SDS011;64418;47.536;19.074;2022-11-20T07:11:39;21.87;;;9.30;;
75793;SDS011;64418;47.536;19.074;2022-11-20T07:14:06;22.83;;;8.93;;
75793;SDS011;64418;47.536;19.074;2022-11-20T07:16:32;20.00;;;8.63;;
75793;SDS011;64418;47.536;19.074;2022-11-20T07:18:58;23.07;;;9.07;;
75793;SDS011;64418;47.536;19.074;2022-11-20T07:21:24;21.87;;;9.32;;
75793;SDS011;64418;47.536;19.074;2022-11-20T07:23:50;21.90;;;9.23;;
75793;SDS011;64418;47.536;19.074;2022-11-20T07:26:16;21.37;;;9.23;;
75793;SDS011;64418;47.536;19.074;2022-11-20T07:28:43;21.08;;;8.65;;
75793;SDS011;64418;47.536;19.074;2022-11-20T07:31:11;21.90;;;9.27;;
75793;SDS011;64418;47.536;19.074;2022-11-20T07:33:37;20.90;;;9.13;;
75793;SDS011;64418;47.536;19.074;2022-11-20T07:36:04;21.37;;;9.33;;
75793;SDS011;64418;47.536;19.074;2022-11-20T07:38:30;19.23;;;9.00;;
75793;SDS011;64418;47.536;19.074;2022-11-20T07:40:56;25.25;;;9.18;;
75793;SDS011;64418;47.536;19.074;2022-11-20T07:43:23;22.45;;;9.23;;
75793;SDS011;64418;47.536;19.074;2022-11-20T07:45:49;19.90;;;9.13;;
75793;SDS011;64418;47.536;19.074;2022-11-20T07:48:17;21.27;;;9.55;;
75793;SDS011;64418;47.536;19.074;2022-11-20T07:50:43;21.58;;;9.07;;
75793;SDS011;64418;47.536;19.074;2022-11-20T07:53:09;22.48;;;9.45;;
75793;SDS011;64418;47.536;19.074;2022-11-20T07:55:34;21.27;;;8.80;;
75793;SDS011;64418;47.536;19.074;2022-11-20T07:58:00;21.57;;;9.43;;
75793;SDS011;64418;47.536;19.074;2022-11-20T08:00:26;20.97;;;8.77;;
75793;SDS011;64418;47.536;19.074;2022-11-20T08:02:52;21.48;;;8.95;;
75793;SDS011;64418;47.536;19.074;2022-11-20T08:05:19;22.40;;;9.38;;
75793;SDS011;64418;47.536;19.074;2022-11-20T08:07:45;19.60;;;8.75;;
75793;SDS011;64418;47.536;19.074;2022-11-20T08:10:13;21.67;;;9.27;;
75793;SDS011;64418;47.536;19.074;2022-11-20T08:12:43;23.92;;;10.05;;
75793;SDS011;64418;47.536;19.074;2022-11-20T08:15:09;21.12;;;9.35;;
75793;SDS011;64418;47.536;19.074;2022-11-20T08:17:36;22.77;;;9.63;;
75793;SDS011;64418;47.536;19.074;2022-11-20T08:20:01;21.13;;;9.67;;
75793;SDS011;64418;47.536;19.074;2022-11-20T08:22:30;21.65;;;9.50;;
75793;SDS011;64418;47.536;19.074;2022-11-20T08:24:56;18.35;;;8.95;;
75793;SDS011;64418;47.536;19.074;2022-11-20T08:27:22;22.63;;;9.93;;
75793;SDS011;64418;47.536;19.074;2022-11-20T08:29:48;25.42;;;10.23;;
75793;SDS011;64418;47.536;19.074;2022-11-20T08:32:15;24.95;;;10.38;;
75793;SDS011;64418;47.536;19.074;2022-11-20T08:34:42;25.27;;;11.45;;
75793;SDS011;64418;47.536;19.074;2022-11-20T08:37:09;22.77;;;11.00;;
75793;SDS011;64418;47.536;19.074;2022-11-20T08:39:37;22.55;;;10.55;;
75793;SDS011;64418;47.536;19.074;2022-11-20T08:42:06;27.05;;;11.45;;
75793;SDS011;64418;47.536;19.074;2022-11-20T08:44:32;22.35;;;10.55;;
75793;SDS011;64418;47.536;19.074;2022-11-20T08:46:57;25.47;;;11.13;;
75793;SDS011;64418;47.536;19.074;2022-11-20T08:49:23;28.83;;;11.50;;
75793;SDS011;64418;47.536;19.074;2022-11-20T08:51:49;25.80;;;12.07;;
75793;SDS011;64418;47.536;19.074;2022-11-20T08:54:16;26.33;;;11.38;;
75793;SDS011;64418;47.536;19.074;2022-11-20T08:56:43;22.55;;;10.60;;
75793;SDS011;64418;47.536;19.074;2022-11-20T08:59:09;29.30;;;10.93;;
75793;SDS011;64418;47.536;19.074;2022-11-20T09:01:35;25.75;;;11.52;;
75793;SDS011;64418;47.536;19.074;2022-11-20T09:04:01;25.62;;;12.30;;
75793;SDS011;64418;47.536;19.074;2022-11-20T09:06:27;23.48;;;11.43;;
75793;SDS011;64418;47.536;19.074;2022-11-20T09:08:53;26.37;;;11.47;;
75793;SDS011;64418;47.536;19.074;2022-11-20T09:11:20;23.27;;;10.80;;
75793;SDS011;64418;47.536;19.074;2022-11-20T09:13:48;27.67;;;12.18;;
75793;SDS011;64418;47.536;19.074;2022-11-20T09:16:14;25.37;;;11.52;;
75793;SDS011;64418;47.536;19.074;2022-11-20T09:18:41;23.62;;;11.12;;
75793;SDS011;64418;47.536;19.074;2022-11-20T09:21:10;25.40;;;10.87;;
75793;SDS011;64418;47.536;19.074;2022-11-20T09:23:38;27.58;;;11.68;;
75793;SDS011;64418;47.536;19.074;2022-11-20T09:26:05;25.83;;;11.70;;
75793;SDS011;64418;47.536;19.074;2022-11-20T09:28:34;27.15;;;11.75;;
75793;SDS011;64418;47.536;19.074;2022-11-20T09:31:03;23.20;;;11.47;;
75793;SDS011;64418;47.536;19.074;2022-11-20T09:33:30;22.08;;;11.45;;
75793;SDS011;64418;47.536;19.074;2022-11-20T09:35:56;24.85;;;11.00;;
75793;SDS011;64418;47.536;19.074;2022-11-20T09:38:25;24.30;;;11.43;;
75793;SDS011;64418;47.536;19.074;2022-11-20T09:40:52;24.07;;;11.27;;
75793;SDS011;64418;47.536;19.074;2022-11-20T09:43:24;25.15;;;11.35;;
75793;SDS011;64418;47.536;19.074;2022-11-20T09:46:00;25.67;;;11.52;;
75793;SDS011;64418;47.536;19.074;2022-11-20T09:48:43;27.00;;;11.73;;
75793;SDS011;64418;47.536;19.074;2022-11-20T09:51:23;24.20;;;11.30;;
75793;SDS011;64418;47.536;19.074;2022-11-20T09:54:02;24.93;;;11.60;;
75793;SDS011;64418;47.536;19.074;2022-11-20T09:56:36;26.17;;;11.32;;
75793;SDS011;64418;47.536;19.074;2022-11-20T09:59:06;24.48;;;11.23;;
75793;SDS011;64418;47.536;19.074;2022-11-20T10:01:40;22.87;;;11.07;;
75793;SDS011;64418;47.536;19.074;2022-11-20T10:04:08;27.13;;;11.25;;
75793;SDS011;64418;47.536;19.074;2022-11-20T10:06:37;22.67;;;10.83;;
75793;SDS011;64418;47.536;19.074;2022-11-20T10:09:14;25.85;;;11.75;;
75793;SDS011;64418;47.536;19.074;2022-11-20T10:11:48;21.27;;;10.95;;
75793;SDS011;64418;47.536;19.074;2022-11-20T10:14:26;27.65;;;11.82;;
75793;SDS011;64418;47.536;19.074;2022-11-20T10:17:22;24.52;;;11.12;;
75793;SDS011;64418;47.536;19.074;2022-11-20T10:20:01;22.37;;;10.87;;
75793;SDS011;64418;47.536;19.074;2022-11-20T10:22:41;27.67;;;10.68;;
75793;SDS011;64418;47.536;19.074;2022-11-20T10:25:15;25.48;;;12.13;;
75793;SDS011;64418;47.536;19.074;2022-11-20T10:27:52;23.42;;;10.38;;
75793;SDS011;64418;47.536;19.074;2022-11-20T10:30:33;32.17;;;9.98;;
75793;SDS011;64418;47.536;19.074;2022-11-20T10:33:05;22.50;;;10.77;;
75793;SDS011;64418;47.536;19.074;2022-11-20T10:35:39;23.15;;;11.60;;
75793;SDS011;64418;47.536;19.074;2022-11-20T10:38:12;26.12;;;11.10;;
75793;SDS011;64418;47.536;19.074;2022-11-20T10:40:48;25.80;;;11.20;;
75793;SDS011;64418;47.536;19.074;2022-11-20T10:43:17;23.17;;;10.93;;
75793;SDS011;64418;47.536;19.074;2022-11-20T10:45:48;27.33;;;10.57;;
75793;SDS011;64418;47.536;19.074;2022-11-20T10:48:21;22.55;;;10.77;;
75793;SDS011;64418;47.536;19.074;2022-11-20T10:50:59;24.85;;;10.15;;
75793;SDS011;64418;47.536;19.074;2022-11-20T10:53:44;22.00;;;9.95;;
75793;SDS011;64418;47.536;19.074;2022-11-20T10:56:20;19.62;;;9.98;;
75793;SDS011;64418;47.536;19.074;2022-11-20T10:58:51;21.90;;;11.20;;
75793;SDS011;64418;47.536;19.074;2022-11-20T11:01:25;23.25;;;10.30;;
75793;SDS011;64418;47.536;19.074;2022-11-20T11:03:52;23.10;;;11.20;;
75793;SDS011;64418;47.536;19.074;2022-11-20T11:06:25;27.60;;;11.77;;
75793;SDS011;64418;47.536;19.074;2022-11-20T11:08:58;19.83;;;10.27;;
75793;SDS011;64418;47.536;19.074;2022-11-20T11:11:27;20.70;;;10.23;;
75793;SDS011;64418;47.536;19.074;2022-11-20T11:14:04;20.88;;;9.93;;
75793;SDS011;64418;47.536;19.074;2022-11-20T11:16:30;20.45;;;10.05;;
75793;SDS011;64418;47.536;19.074;2022-11-20T11:19:04;21.60;;;10.40;;
75793;SDS011;64418;47.536;19.074;2022-11-20T11:21:31;21.23;;;9.80;;
75793;SDS011;64418;47.536;19.074;2022-11-20T11:23:58;23.05;;;10.90;;
75793;SDS011;64418;47.536;19.074;2022-11-20T11:26:30;22.10;;;10.85;;
75793;SDS011;64418;47.536;19.074;2022-11-20T11:28:56;24.17;;;10.83;;
75793;SDS011;64418;47.536;19.074;2022-11-20T11:31:31;24.10;;;11.50;;
75793;SDS011;64418;47.536;19.074;2022-11-20T11:34:07;24.98;;;12.50;;
75793;SDS011;64418;47.536;19.074;2022-11-20T11:36:36;27.05;;;12.63;;
75793;SDS011;64418;47.536;19.074;2022-11-20T11:39:05;24.17;;;11.70;;
75793;SDS011;64418;47.536;19.074;2022-11-20T11:41:37;24.90;;;11.43;;
75793;SDS011;64418;47.536;19.074;2022-11-20T11:44:12;24.90;;;11.43;;
75793;SDS011;64418;47.536;19.074;2022-11-20T11:46:44;26.55;;;11.05;;
75793;SDS011;64418;47.536;19.074;2022-11-20T11:49:19;21.90;;;10.68;;
75793;SDS011;64418;47.536;19.074;2022-11-20T11:51:47;24.77;;;11.13;;
75793;SDS011;64418;47.536;19.074;2022-11-20T11:54:25;24.27;;;11.82;;
75793;SDS011;64418;47.536;19.074;2022-11-20T11:56:55;23.42;;;11.50;;
75793;SDS011;64418;47.536;19.074;2022-11-20T11:59:27;25.90;;;12.05;;
75793;SDS011;64418;47.536;19.074;2022-11-20T12:01:59;28.48;;;11.77;;
75793;SDS011;64418;47.536;19.074;2022-11-20T12:04:37;25.90;;;11.97;;
75793;SDS011;64418;47.536;19.074;2022-11-20T12:07:10;28.45;;;13.20;;
75793;SDS011;64418;47.536;19.074;2022-11-20T12:09:46;29.87;;;12.98;;
75793;SDS011;64418;47.536;19.074;2022-11-20T12:12:18;25.15;;;12.65;;
75793;SDS011;64418;47.536;19.074;2022-11-20T12:14:47;24.35;;;12.98;;
75793;SDS011;64418;47.536;19.074;2022-11-20T12:17:15;29.30;;;12.80;;
75793;SDS011;64418;47.536;19.074;2022-11-20T12:19:42;25.92;;;12.55;;
75793;SDS011;64418;47.536;19.074;2022-11-20T12:22:12;27.33;;;12.95;;
75793;SDS011;64418;47.536;19.074;2022-11-20T12:24:49;24.90;;;11.98;;
75793;SDS011;64418;47.536;19.074;2022-11-20T12:27:35;26.70;;;12.27;;
75793;SDS011;64418;47.536;19.074;2022-11-20T12:30:24;27.35;;;12.80;;
75793;SDS011;64418;47.536;19.074;2022-11-20T12:35:52;27.00;;;13.10;;
75793;SDS011;64418;47.536;19.074;2022-11-20T12:38:38;30.80;;;12.27;;
75793;SDS011;64418;47.536;19.074;2022-11-20T12:41:19;31.40;;;13.93;;
75793;SDS011;64418;47.536;19.074;2022-11-20T12:44:03;30.50;;;13.35;;
75793;SDS011;64418;47.536;19.074;2022-11-20T12:46:38;26.95;;;12.63;;
75793;SDS011;64418;47.536;19.074;2022-11-20T12:49:17;29.73;;;13.00;;
75793;SDS011;64418;47.536;19.074;2022-11-20T12:52:01;29.63;;;13.10;;
75793;SDS011;64418;47.536;19.074;2022-11-20T12:57:43;29.45;;;13.27;;
75793;SDS011;64418;47.536;19.074;2022-11-20T13:00:14;27.15;;;12.93;;
75793;SDS011;64418;47.536;19.074;2022-11-20T13:05:43;26.12;;;12.85;;
75793;SDS011;64418;47.536;19.074;2022-11-20T13:08:20;24.43;;;11.83;;
75793;SDS011;64418;47.536;19.074;2022-11-20T13:10:49;29.58;;;13.52;;
75793;SDS011;64418;47.536;19.074;2022-11-20T13:13:23;26.12;;;12.68;;
75793;SDS011;64418;47.536;19.074;2022-11-20T13:15:59;25.02;;;12.57;;
75793;SDS011;64418;47.536;19.074;2022-11-20T13:18:33;26.27;;;12.05;;
75793;SDS011;64418;47.536;19.074;2022-11-20T13:21:13;25.80;;;12.47;;
75793;SDS011;64418;47.536;19.074;2022-11-20T13:23:43;26.12;;;11.82;;
75793;SDS011;64418;47.536;19.074;2022-11-20T13:26:17;26.15;;;12.05;;
75793;SDS011;64418;47.536;19.074;2022-11-20T13:28:48;24.83;;;11.43;;
75793;SDS011;64418;47.536;19.074;2022-11-20T13:31:28;26.42;;;11.43;;
75793;SDS011;64418;47.536;19.074;2022-11-20T13:33:57;26.20;;;11.57;;
75793;SDS011;64418;47.536;19.074;2022-11-20T13:36:26;27.55;;;12.15;;
75793;SDS011;64418;47.536;19.074;2022-11-20T13:38:56;25.60;;;12.37;;
75793;SDS011;64418;47.536;19.074;2022-11-20T13:41:26;25.95;;;12.02;;
75793;SDS011;64418;47.536;19.074;2022-11-20T13:43:56;28.75;;;12.10;;
75793;SDS011;64418;47.536;19.074;2022-11-20T13:46:36;25.63;;;11.90;;
75793;SDS011;64418;47.536;19.074;2022-11-20T13:49:08;28.92;;;12.37;;
75793;SDS011;64418;47.536;19.074;2022-11-20T13:51:40;23.20;;;11.55;;
75793;SDS011;64418;47.536;19.074;2022-11-20T13:54:19;25.98;;;11.65;;
75793;SDS011;64418;47.536;19.074;2022-11-20T13:56:59;25.23;;;11.50;;
75793;SDS011;64418;47.536;19.074;2022-11-20T13:59:39;23.87;;;11.43;;
75793;SDS011;64418;47.536;19.074;2022-11-20T14:02:13;25.27;;;11.25;;
75793;SDS011;64418;47.536;19.074;2022-11-20T14:04:42;23.42;;;11.02;;
75793;SDS011;64418;47.536;19.074;2022-11-20T14:07:10;29.05;;;11.73;;
75793;SDS011;64418;47.536;19.074;2022-11-20T14:09:48;25.80;;;11.50;;
75793;SDS011;64418;47.536;19.074;2022-11-20T14:12:16;24.40;;;12.17;;
75793;SDS011;64418;47.536;19.074;2022-11-20T14:14:47;28.67;;;12.50;;
75793;SDS011;64418;47.536;19.074;2022-11-20T14:17:17;25.08;;;11.40;;
75793;SDS011;64418;47.536;19.074;2022-11-20T14:19:44;26.33;;;12.60;;
75793;SDS011;64418;47.536;19.074;2022-11-20T14:22:19;25.88;;;11.90;;
75793;SDS011;64418;47.536;19.074;2022-11-20T14:25:00;28.50;;;11.83;;
75793;SDS011;64418;47.536;19.074;2022-11-20T14:27:27;26.80;;;13.05;;
75793;SDS011;64418;47.536;19.074;2022-11-20T14:29:53;29.98;;;12.60;;
75793;SDS011;64418;47.536;19.074;2022-11-20T14:32:20;26.70;;;12.00;;